Racecast

Adam Ashbaugh

Northwest Cabarrus (NC) · 12 · SPCNC D5ACABARRUS · Compare head to head

Athlete rating 104.3 2018 TF season
Best race 104.3 TF
Races 37
Seasons 5 2014 — 2018

RankedNation #91216·NC #2428·NC D5A #893·SPC #71·Team #13 ?

Speed rating — all races

Cross Country

XC speed rating

2017 XC 90.4

Northwest Cabarrus (NC) · Grade 12

Date Meet Event Result Place Rating Difficulty PR/SR Flags
2017-10-17 Vietnam Veteran's Park 5000m 22:10 64th · 16th on team 94.5 +0.019 ★CR CSR
2017-10-10 Frank Lisk Park 5000m 23:14 50th · 12th on team 91.4 +0.022
2017-10-07 McAlpine Creek Park 5000m 23:26.8 227th · 1st on team 87.3 +0.002
2017-10-03 Frank Lisk Park 5000m 21:25 10th · 4th on team 97.6 +0.022 ★PR ★CR R SR CSR RSR
2017-09-23 McAlpine Creek Park 5000m 22:47.2 331st · 8th on team 91.7 +0.002 ★CR CSR
2017-09-19 Central Cabarrus HS 5000m 27:47 73rd · 12th on team 78.9 +0.057 ★CR CSR
2017-09-14 McAnderson Park 5000m 22:02.8 49th · 7th on team 93.8 +0.014 PR ★CR SR CSR RSR
2017-09-08 Ivey Redmon Sports Complex 5000m 22:43.2 381st · 6th on team 91.1 +0.010 PR ★CR SR CSR
2017-09-05 Frank Lisk Park 3218m 14:47 38th · 5th on team 91.8 +0.066 ★PR ★CR SR CSR RSR
2017-08-26 Jackson Park 5000m 24:02.5 108th · 5th on team 86.4 +0.025 PR ★CR SR CSR RSR

2016 XC 79.4

Northwest Cabarrus (NC) · Grade 11

Date Meet Event Result Place Rating Difficulty PR/SR Flags
2016-10-18 Salisbury Community Park 5000m 26:20 71st · 9th on team 82.6 +0.042 ★CR CSR
2016-10-01 McAlpine Creek Park 5000m 25:07.3 310th · 5th on team 82.3 +0.002
2016-09-27 Vietnam Veteran's Park 5000m 25:54 12th · 12th on team 80.9 +0.019 CR CSR
2016-09-17 McAlpine Creek Park 5000m 24:25.1 296th · 2nd on team 84.8 +0.002 PR CR R SR CSR RSR
2016-09-06 Frank Lisk Park 3200m 17:35.7 66th · 7th on team 76.9 +0.066 ★PR ★CR SR CSR RSR
2016-08-30 West Rowan High School 5000m 31:02 146th · 15th on team 73.6 +0.099 ★CR CSR
2016-08-27 Jackson Park 5000m 28:32.6 158th · 3rd on team 74.3 +0.025 CR SR CSR RSR

2014 XC 71.1

Northwest Cabarrus (NC) · Grade 9

Date Meet Event Result Place Rating Difficulty PR/SR Flags
2014-10-04 McAlpine Creek Park 5000m 27:31 625th · 10th on team 74.9 +0.002 PR CR R SR CSR RSR
2014-09-30 Vietnam Veteran's Park 5000m 28:32 45th · 8th on team 73.7 +0.019 PR CR R SR CSR RSR
2014-09-09 McAnderson Park 5000m 30:03.4 193rd · 12th on team 69.0 +0.014 PR CR R SR CSR RSR
2014-09-02 Frank Lisk Park 3218m 20:21 97th · 12th on team 66.7 +0.066 PR CR R SR CSR RSR

Track & Field

TF speed rating

2018 TF 101.7

Northwest Cabarrus (NC) · Grade 12

Date Meet Event Result Place Rating Difficulty PR/SR Flags
2018-04-19 West Rowan Event 3 800m 2:29.6 12th · 7th on team 103.5 -0.017
2018-04-12 Central Cabarrus, Carson, Northwest Cabarrus @ AL Brown 800m 2:34 18th · 8th on team 99.6 -0.027
2018-03-27 Statesville Meet #4 800m 2:29 7th · 5th on team 103.7 -0.021
2018-03-27 Central Cabarrus, Statesville, Northwest 800m 2:29 7th · 5th on team 103.7 -0.021
2018-03-24 Times-News Invitational 800m 2:31.58 26th · 3rd on team 101.4 -0.026
2018-03-24 Times-News Invitational 1600m 5:41.81 35th · 3rd on team 101.0 -0.026 ★PR SR
2018-03-22 South Iredell #1 1600m 6:02.7 15th · 4th on team 95.9 -0.017 PR SR
2018-03-17 Trojan Invitational 800m 2:27.73 25th · 3rd on team 104.3 -0.024 ★PR ★R SR RSR
2018-03-15 Statesville Home Meet 800m 2:30.3 11th · 4th on team 102.5 -0.021 PR R SR RSR

2017 TF 90.9

Northwest Cabarrus (NC) · Grade 11

Date Meet Event Result Place Rating Difficulty PR/SR Flags
2017-04-27 Con,NWC,HR,JMR at West Rowan 800m 2:49.6 65th · 20th on team 91.0 -0.015
2017-04-27 Con,NWC,HR,JMR at West Rowan 800m 2:43.5 57th · 17th on team 94.4 -0.015 R RSR
2017-04-26 West Rowan Home Meet 800m 2:43.49 23rd · 7th on team 94.2 -0.017 PR R SR RSR
2017-03-22 CM,NWC,JMR,HR at Wesr Rowan 800m 2:49.6 38th · 11th on team 91.0 -0.015 PR R SR RSR
2017-03-07 Cabarrus Co Kickoff Time Trials 800m 3:02.5 61st · 14th on team 84.1 -0.024 PR SR RSR

2016 TF 81.1

Northwest Cabarrus (NC) · Grade 10

Date Meet Event Result Place Rating Difficulty PR/SR Flags
2016-04-07 East Rowan Meet #5 800m 3:09.25 33rd · 10th on team 81.1 -0.025 SR RSR

2015 TF 83.8

Northwest Cabarrus (NC) · Grade 9

Date Meet Event Result Place Rating Difficulty PR/SR Flags
2015-03-19 Er,hr,nwc 800m 3:04.3 36th · 12th on team 83.8 -0.015 PR R SR RSR